sensor_id;sensor_type;location;lat;lon;timestamp;pressure;altitude;pressure_sealevel;temperature;humidity
69184;BME280;56291;53.960;27.550;2022-08-11T02:03:13;99916.22;;;13.46;52.42
69184;BME280;56291;53.960;27.550;2022-08-11T02:09:15;99921.53;;;13.46;52.33
69184;BME280;56291;53.960;27.550;2022-08-11T02:11:46;99910.38;;;13.42;52.54
69184;BME280;56291;53.960;27.550;2022-08-11T02:14:47;99916.50;;;13.33;52.51
69184;BME280;56291;53.960;27.550;2022-08-11T02:20:27;99916.88;;;13.28;52.55
69184;BME280;56291;53.960;27.550;2022-08-11T02:23:31;99913.69;;;13.25;52.13
69184;BME280;56291;53.960;27.550;2022-08-11T02:26:53;99917.72;;;13.19;52.52
69184;BME280;56291;53.960;27.550;2022-08-11T02:32:38;99924.53;;;13.12;52.46
69184;BME280;56291;53.960;27.550;2022-08-11T02:38:24;99927.31;;;13.10;53.06
69184;BME280;56291;53.960;27.550;2022-08-11T02:41:11;99926.31;;;13.01;52.53
69184;BME280;56291;53.960;27.550;2022-08-11T02:50:22;99923.53;;;13.03;53.40
69184;BME280;56291;53.960;27.550;2022-08-11T02:52:57;99927.16;;;12.92;54.00
69184;BME280;56291;53.960;27.550;2022-08-11T02:58:29;99924.06;;;12.87;53.79
69184;BME280;56291;53.960;27.550;2022-08-11T03:01:22;99922.41;;;12.86;53.42
69184;BME280;56291;53.960;27.550;2022-08-11T03:04:05;99925.44;;;12.81;53.29
69184;BME280;56291;53.960;27.550;2022-08-11T03:07:04;99928.22;;;12.80;53.43
69184;BME280;56291;53.960;27.550;2022-08-11T03:12:24;99926.69;;;12.77;53.40
69184;BME280;56291;53.960;27.550;2022-08-11T03:15:19;99927.78;;;12.75;53.71
69184;BME280;56291;53.960;27.550;2022-08-11T03:18:53;99929.88;;;12.71;53.97
69184;BME280;56291;53.960;27.550;2022-08-11T03:21:31;99932.91;;;12.66;53.79
69184;BME280;56291;53.960;27.550;2022-08-11T03:24:40;99931.13;;;12.67;54.24
69184;BME280;56291;53.960;27.550;2022-08-11T03:29:38;99939.84;;;12.67;55.31
69184;BME280;56291;53.960;27.550;2022-08-11T03:35:06;99936.53;;;12.65;55.67
69184;BME280;56291;53.960;27.550;2022-08-11T03:37:54;99930.84;;;12.70;56.15
69184;BME280;56291;53.960;27.550;2022-08-11T03:46:09;99935.00;;;12.63;56.50
69184;BME280;56291;53.960;27.550;2022-08-11T03:52:05;99930.16;;;12.68;55.12
69184;BME280;56291;53.960;27.550;2022-08-11T04:06:25;99950.72;;;12.74;54.90
69184;BME280;56291;53.960;27.550;2022-08-11T04:12:50;99948.91;;;12.75;56.86
69184;BME280;56291;53.960;27.550;2022-08-11T04:15:56;99950.72;;;12.74;57.14
69184;BME280;56291;53.960;27.550;2022-08-11T04:22:04;99945.75;;;12.81;55.62
69184;BME280;56291;53.960;27.550;2022-08-11T04:25:01;99948.63;;;12.78;59.95
69184;BME280;56291;53.960;27.550;2022-08-11T04:31:09;99945.47;;;12.84;58.33
69184;BME280;56291;53.960;27.550;2022-08-11T04:40:33;99941.63;;;12.98;58.42
69184;BME280;56291;53.960;27.550;2022-08-11T04:43:25;99938.69;;;13.01;57.94
69184;BME280;56291;53.960;27.550;2022-08-11T04:46:25;99937.47;;;13.05;61.91
69184;BME280;56291;53.960;27.550;2022-08-11T05:02:21;99948.06;;;13.25;58.87
69184;BME280;56291;53.960;27.550;2022-08-11T05:05:27;99950.13;;;13.31;59.08
69184;BME280;56291;53.960;27.550;2022-08-11T05:13:49;99956.84;;;13.45;58.69
69184;BME280;56291;53.960;27.550;2022-08-11T05:16:47;99956.44;;;13.49;58.71
69184;BME280;56291;53.960;27.550;2022-08-11T05:19:33;99948.25;;;13.52;59.64
69184;BME280;56291;53.960;27.550;2022-08-11T05:22:24;99946.69;;;13.60;60.84
69184;BME280;56291;53.960;27.550;2022-08-11T05:25:23;99946.41;;;13.63;58.48
69184;BME280;56291;53.960;27.550;2022-08-11T05:28:31;99950.44;;;13.67;59.68
69184;BME280;56291;53.960;27.550;2022-08-11T05:31:21;99948.63;;;13.77;60.99
69184;BME280;56291;53.960;27.550;2022-08-11T05:34:22;99952.66;;;13.81;59.35
69184;BME280;56291;53.960;27.550;2022-08-11T05:37:12;99960.44;;;13.93;60.74
69184;BME280;56291;53.960;27.550;2022-08-11T05:39:45;99954.19;;;13.94;59.39
69184;BME280;56291;53.960;27.550;2022-08-11T05:42:32;99961.56;;;14.00;60.01
69184;BME280;56291;53.960;27.550;2022-08-11T05:45:18;99968.09;;;14.05;60.56
69184;BME280;56291;53.960;27.550;2022-08-11T05:48:04;99953.72;;;14.08;59.21
69184;BME280;56291;53.960;27.550;2022-08-11T05:51:00;99952.31;;;14.14;59.51
69184;BME280;56291;53.960;27.550;2022-08-11T05:53:51;99955.38;;;14.19;60.37
69184;BME280;56291;53.960;27.550;2022-08-11T05:56:43;99961.22;;;14.22;59.95
69184;BME280;56291;53.960;27.550;2022-08-11T05:59:20;99961.06;;;14.34;60.42
69184;BME280;56291;53.960;27.550;2022-08-11T06:02:00;99963.81;;;14.42;60.01
69184;BME280;56291;53.960;27.550;2022-08-11T06:04:38;99956.25;;;14.47;59.64
69184;BME280;56291;53.960;27.550;2022-08-11T06:07:10;99959.97;;;14.54;60.22
69184;BME280;56291;53.960;27.550;2022-08-11T06:12:36;99960.81;;;14.65;59.82
69184;BME280;56291;53.960;27.550;2022-08-11T06:15:07;99957.97;;;14.76;61.64
69184;BME280;56291;53.960;27.550;2022-08-11T06:21:09;99951.97;;;15.02;61.07
69184;BME280;56291;53.960;27.550;2022-08-11T06:26:58;99957.00;;;15.23;60.94
69184;BME280;56291;53.960;27.550;2022-08-11T06:29:27;99957.63;;;15.35;60.26
69184;BME280;56291;53.960;27.550;2022-08-11T06:32:10;99954.75;;;15.46;61.59
69184;BME280;56291;53.960;27.550;2022-08-11T06:47:53;99949.28;;;16.10;59.92
69184;BME280;56291;53.960;27.550;2022-08-11T06:51:07;99951.94;;;16.36;60.65
69184;BME280;56291;53.960;27.550;2022-08-11T06:54:21;99950.41;;;16.68;59.74
69184;BME280;56291;53.960;27.550;2022-08-11T07:03:52;99951.28;;;17.36;59.32
69184;BME280;56291;53.960;27.550;2022-08-11T07:16:10;99947.13;;;18.08;58.10
69184;BME280;56291;53.960;27.550;2022-08-11T07:18:51;99955.44;;;18.21;57.63
69184;BME280;56291;53.960;27.550;2022-08-11T07:22:09;99941.75;;;18.41;57.05
69184;BME280;56291;53.960;27.550;2022-08-11T07:25:05;99947.84;;;18.58;56.22
69184;BME280;56291;53.960;27.550;2022-08-11T07:28:17;99951.63;;;18.72;55.55
69184;BME280;56291;53.960;27.550;2022-08-11T07:34:36;99950.97;;;19.09;54.09
69184;BME280;56291;53.960;27.550;2022-08-11T07:44:24;99948.13;;;19.57;53.06
69184;BME280;56291;53.960;27.550;2022-08-11T07:47:14;99945.03;;;19.68;52.78
69184;BME280;56291;53.960;27.550;2022-08-11T07:50:38;99933.56;;;19.83;52.30
69184;BME280;56291;53.960;27.550;2022-08-11T07:59:44;99936.59;;;20.33;51.11
69184;BME280;56291;53.960;27.550;2022-08-11T08:02:52;99934.94;;;20.47;51.00
69184;BME280;56291;53.960;27.550;2022-08-11T08:05:57;99911.31;;;20.50;50.78
69184;BME280;56291;53.960;27.550;2022-08-11T08:09:04;99925.31;;;20.82;50.51
69184;BME280;56291;53.960;27.550;2022-08-11T08:12:14;99910.16;;;20.90;50.29
69184;BME280;56291;53.960;27.550;2022-08-11T08:15:21;99936.81;;;21.19;49.90
69184;BME280;56291;53.960;27.550;2022-08-11T08:24:53;99917.41;;;21.76;48.72
69184;BME280;56291;53.960;27.550;2022-08-11T08:31:13;99911.88;;;22.19;47.52
69184;BME280;56291;53.960;27.550;2022-08-11T08:34:36;99913.00;;;22.31;44.14
69184;BME280;56291;53.960;27.550;2022-08-11T08:40:54;99904.69;;;22.61;45.89
69184;BME280;56291;53.960;27.550;2022-08-11T08:46:57;99906.25;;;22.97;45.39
69184;BME280;56291;53.960;27.550;2022-08-11T08:53:14;99898.09;;;23.32;44.71
69184;BME280;56291;53.960;27.550;2022-08-11T08:56:26;99891.09;;;23.44;44.45
69184;BME280;56291;53.960;27.550;2022-08-11T08:59:02;99894.19;;;23.55;44.21
69184;BME280;56291;53.960;27.550;2022-08-11T09:05:06;99906.56;;;23.83;43.76
69184;BME280;56291;53.960;27.550;2022-08-11T09:08:17;99901.19;;;24.03;43.92
69184;BME280;56291;53.960;27.550;2022-08-11T09:11:15;99902.19;;;24.22;43.32
69184;BME280;56291;53.960;27.550;2022-08-11T09:18:12;99889.00;;;24.59;40.97
69184;BME280;56291;53.960;27.550;2022-08-11T09:24:47;99898.53;;;25.07;41.17
69184;BME280;56291;53.960;27.550;2022-08-11T09:27:33;99902.31;;;25.24;41.88
69184;BME280;56291;53.960;27.550;2022-08-11T09:34:15;99897.97;;;25.80;41.63
69184;BME280;56291;53.960;27.550;2022-08-11T09:44:06;99881.00;;;26.73;39.56
69184;BME280;56291;53.960;27.550;2022-08-11T09:47:02;99881.19;;;27.01;39.47
69184;BME280;56291;53.960;27.550;2022-08-11T10:00:12;99870.63;;;27.90;38.69
69184;BME280;56291;53.960;27.550;2022-08-11T10:06:41;99876.34;;;28.41;35.43
69184;BME280;56291;53.960;27.550;2022-08-11T10:09:44;99863.19;;;28.32;34.90
69184;BME280;56291;53.960;27.550;2022-08-11T10:12:46;99856.59;;;28.69;36.08
69184;BME280;56291;53.960;27.550;2022-08-11T10:16:05;99857.03;;;28.78;35.43
69184;BME280;56291;53.960;27.550;2022-08-11T10:19:31;99859.63;;;29.18;36.03
69184;BME280;56291;53.960;27.550;2022-08-11T10:26:15;99861.50;;;29.69;35.70
69184;BME280;56291;53.960;27.550;2022-08-11T10:35:57;99852.97;;;30.21;35.17
69184;BME280;56291;53.960;27.550;2022-08-11T10:44:59;99842.06;;;30.93;34.50
69184;BME280;56291;53.960;27.550;2022-08-11T10:51:08;99824.59;;;31.11;30.39
69184;BME280;56291;53.960;27.550;2022-08-11T10:54:00;99824.06;;;31.09;31.66
69184;BME280;56291;53.960;27.550;2022-08-11T10:56:51;99820.28;;;31.15;29.46
69184;BME280;56291;53.960;27.550;2022-08-11T10:59:40;99811.28;;;31.09;29.30
69184;BME280;56291;53.960;27.550;2022-08-11T11:02:35;99821.56;;;31.40;31.58
69184;BME280;56291;53.960;27.550;2022-08-11T11:15:48;99810.09;;;31.75;28.75
69184;BME280;56291;53.960;27.550;2022-08-11T11:29:09;99812.06;;;33.00;29.49
69184;BME280;56291;53.960;27.550;2022-08-11T11:44:43;99811.50;;;33.50;29.46
69184;BME280;56291;53.960;27.550;2022-08-11T11:48:02;99824.03;;;33.56;29.23
69184;BME280;56291;53.960;27.550;2022-08-11T11:54:39;99812.28;;;33.55;27.79
69184;BME280;56291;53.960;27.550;2022-08-11T12:01:14;99811.50;;;33.55;29.00
69184;BME280;56291;53.960;27.550;2022-08-11T12:04:18;99800.56;;;33.50;29.19
69184;BME280;56291;53.960;27.550;2022-08-11T12:17:10;99808.47;;;33.56;27.93
69184;BME280;56291;53.960;27.550;2022-08-11T12:29:29;99808.31;;;34.08;28.46
69184;BME280;56291;53.960;27.550;2022-08-11T12:35:55;99811.34;;;34.06;29.81
69184;BME280;56291;53.960;27.550;2022-08-11T12:45:44;99800.06;;;34.23;28.87
69184;BME280;56291;53.960;27.550;2022-08-11T12:58:19;99810.25;;;34.52;29.23
69184;BME280;56291;53.960;27.550;2022-08-11T13:01:09;99795.50;;;34.58;28.19
69184;BME280;56291;53.960;27.550;2022-08-11T13:07:10;99801.78;;;34.54;27.93
69184;BME280;56291;53.960;27.550;2022-08-11T13:10:11;99796.13;;;34.45;28.85
69184;BME280;56291;53.960;27.550;2022-08-11T13:13:39;99794.09;;;34.61;29.11
69184;BME280;56291;53.960;27.550;2022-08-11T13:16:48;99800.19;;;34.47;24.82
69184;BME280;56291;53.960;27.550;2022-08-11T13:20:02;99795.00;;;34.51;24.87
69184;BME280;56291;53.960;27.550;2022-08-11T13:22:42;99796.88;;;34.56;26.69
69184;BME280;56291;53.960;27.550;2022-08-11T13:29:01;99796.81;;;35.00;27.19
69184;BME280;56291;53.960;27.550;2022-08-11T13:35:00;99791.31;;;35.06;28.11
69184;BME280;56291;53.960;27.550;2022-08-11T13:41:02;99770.25;;;35.36;29.18
69184;BME280;56291;53.960;27.550;2022-08-11T13:44:10;99775.13;;;35.39;27.75
69184;BME280;56291;53.960;27.550;2022-08-11T13:47:13;99778.25;;;35.27;27.63
69184;BME280;56291;53.960;27.550;2022-08-11T13:50:24;99778.59;;;35.20;27.54
69184;BME280;56291;53.960;27.550;2022-08-11T13:56:46;99776.22;;;35.08;25.97
69184;BME280;56291;53.960;27.550;2022-08-11T13:59:44;99771.03;;;35.07;27.75
69184;BME280;56291;53.960;27.550;2022-08-11T14:02:50;99768.66;;;35.00;27.38
69184;BME280;56291;53.960;27.550;2022-08-11T14:06:05;99761.44;;;35.09;28.27
69184;BME280;56291;53.960;27.550;2022-08-11T14:09:57;99760.19;;;35.02;28.43
69184;BME280;56291;53.960;27.550;2022-08-11T14:16:02;99760.25;;;34.91;28.38
69184;BME280;56291;53.960;27.550;2022-08-11T14:19:04;99758.91;;;34.89;28.30
69184;BME280;56291;53.960;27.550;2022-08-11T14:22:30;99755.38;;;34.88;28.09
69184;BME280;56291;53.960;27.550;2022-08-11T14:28:17;99750.66;;;34.94;28.33
69184;BME280;56291;53.960;27.550;2022-08-11T14:37:42;99746.06;;;34.89;27.85
69184;BME280;56291;53.960;27.550;2022-08-11T14:40:33;99739.69;;;34.99;28.01
69184;BME280;56291;53.960;27.550;2022-08-11T14:43:36;99734.22;;;34.99;26.78
69184;BME280;56291;53.960;27.550;2022-08-11T14:46:27;99736.19;;;34.93;27.70
69184;BME280;56291;53.960;27.550;2022-08-11T14:49:34;99741.13;;;34.91;26.97
69184;BME280;56291;53.960;27.550;2022-08-11T14:52:54;99735.31;;;34.98;27.49
69184;BME280;56291;53.960;27.550;2022-08-11T14:59:32;99730.13;;;34.96;27.46
69184;BME280;56291;53.960;27.550;2022-08-11T15:06:14;99720.78;;;35.03;26.84
69184;BME280;56291;53.960;27.550;2022-08-11T15:15:32;99718.63;;;34.99;24.86
69184;BME280;56291;53.960;27.550;2022-08-11T15:21:50;99720.09;;;34.92;26.75
69184;BME280;56291;53.960;27.550;2022-08-11T15:24:58;99720.09;;;34.92;26.65
69184;BME280;56291;53.960;27.550;2022-08-11T15:27:53;99716.28;;;34.88;26.17
69184;BME280;56291;53.960;27.550;2022-08-11T15:44:13;99718.09;;;34.68;26.03
69184;BME280;56291;53.960;27.550;2022-08-11T15:47:02;99720.56;;;34.64;26.39
69184;BME280;56291;53.960;27.550;2022-08-11T15:50:14;99717.94;;;34.49;25.91
69184;BME280;56291;53.960;27.550;2022-08-11T16:00:10;99725.19;;;34.35;25.26
69184;BME280;56291;53.960;27.550;2022-08-11T16:03:18;99709.06;;;34.28;26.70
69184;BME280;56291;53.960;27.550;2022-08-11T16:13:26;99719.81;;;34.14;26.14
69184;BME280;56291;53.960;27.550;2022-08-11T16:16:40;99723.69;;;34.08;26.17
69184;BME280;56291;53.960;27.550;2022-08-11T16:22:42;99724.66;;;33.77;24.22
69184;BME280;56291;53.960;27.550;2022-08-11T16:28:47;99726.34;;;33.58;26.71
69184;BME280;56291;53.960;27.550;2022-08-11T16:34:45;99725.53;;;33.62;26.60
69184;BME280;56291;53.960;27.550;2022-08-11T16:41:20;99726.19;;;33.28;27.33
69184;BME280;56291;53.960;27.550;2022-08-11T16:44:19;99722.91;;;33.16;26.72
69184;BME280;56291;53.960;27.550;2022-08-11T16:47:31;99732.75;;;33.07;27.66
69184;BME280;56291;53.960;27.550;2022-08-11T16:53:33;99731.69;;;32.72;27.72
69184;BME280;56291;53.960;27.550;2022-08-11T16:56:20;99742.56;;;32.46;27.48
69184;BME280;56291;53.960;27.550;2022-08-11T16:59:21;99732.75;;;32.30;27.90
69184;BME280;56291;53.960;27.550;2022-08-11T17:02:35;99734.59;;;32.14;28.23
69184;BME280;56291;53.960;27.550;2022-08-11T17:05:25;99742.69;;;31.93;28.06
69184;BME280;56291;53.960;27.550;2022-08-11T17:15:02;99728.53;;;31.33;28.65
69184;BME280;56291;53.960;27.550;2022-08-11T17:17:52;99735.78;;;31.17;28.79
69184;BME280;56291;53.960;27.550;2022-08-11T17:20:52;99740.53;;;30.99;29.18
69184;BME280;56291;53.960;27.550;2022-08-11T17:23:34;99738.50;;;30.84;29.19
69184;BME280;56291;53.960;27.550;2022-08-11T17:30:16;99748.06;;;30.32;29.64
69184;BME280;56291;53.960;27.550;2022-08-11T17:33:05;99750.16;;;29.98;29.45
69184;BME280;56291;53.960;27.550;2022-08-11T17:35:50;99747.72;;;29.79;30.43
69184;BME280;56291;53.960;27.550;2022-08-11T17:41:42;99760.84;;;29.43;31.28
69184;BME280;56291;53.960;27.550;2022-08-11T17:44:28;99766.09;;;29.16;30.94
69184;BME280;56291;53.960;27.550;2022-08-11T17:47:21;99771.53;;;28.99;31.41
69184;BME280;56291;53.960;27.550;2022-08-11T17:50:07;99768.22;;;28.80;31.05
69184;BME280;56291;53.960;27.550;2022-08-11T17:52:51;99771.53;;;28.53;30.69
69184;BME280;56291;53.960;27.550;2022-08-11T17:55:48;99778.81;;;28.35;30.65
69184;BME280;56291;53.960;27.550;2022-08-11T18:05:11;99783.78;;;27.74;31.14
69184;BME280;56291;53.960;27.550;2022-08-11T18:11:13;99784.84;;;27.26;31.49
69184;BME280;56291;53.960;27.550;2022-08-11T18:14:05;99795.72;;;27.07;31.82
69184;BME280;56291;53.960;27.550;2022-08-11T18:16:51;99794.41;;;26.86;32.12
69184;BME280;56291;53.960;27.550;2022-08-11T18:19:36;99792.44;;;26.63;32.03
69184;BME280;56291;53.960;27.550;2022-08-11T18:22:36;99794.28;;;26.50;32.09
69184;BME280;56291;53.960;27.550;2022-08-11T18:25:37;99796.88;;;26.27;32.41
69184;BME280;56291;53.960;27.550;2022-08-11T18:28:31;99792.69;;;25.94;32.88
69184;BME280;56291;53.960;27.550;2022-08-11T18:31:20;99796.22;;;25.76;33.01
69184;BME280;56291;53.960;27.550;2022-08-11T18:34:19;99798.06;;;25.57;32.95
69184;BME280;56291;53.960;27.550;2022-08-11T18:37:30;99795.00;;;25.28;33.36
69184;BME280;56291;53.960;27.550;2022-08-11T18:40:20;99805.09;;;25.07;33.72
69184;BME280;56291;53.960;27.550;2022-08-11T18:43:11;99799.25;;;24.85;33.90
69184;BME280;56291;53.960;27.550;2022-08-11T18:46:02;99805.78;;;24.71;34.41
69184;BME280;56291;53.960;27.550;2022-08-11T18:48:57;99798.59;;;24.58;34.62
69184;BME280;56291;53.960;27.550;2022-08-11T18:51:48;99801.78;;;24.41;34.74
69184;BME280;56291;53.960;27.550;2022-08-11T18:54:36;99799.41;;;24.20;34.89
69184;BME280;56291;53.960;27.550;2022-08-11T18:57:22;99798.84;;;24.04;35.22
69184;BME280;56291;53.960;27.550;2022-08-11T19:00:12;99798.47;;;23.94;35.01
69184;BME280;56291;53.960;27.550;2022-08-11T19:02:58;99800.38;;;23.67;35.44
69184;BME280;56291;53.960;27.550;2022-08-11T19:05:46;99803.50;;;23.50;35.87
69184;BME280;56291;53.960;27.550;2022-08-11T19:08:39;99802.47;;;23.38;35.97
69184;BME280;56291;53.960;27.550;2022-08-11T19:11:26;99806.00;;;23.25;35.81
69184;BME280;56291;53.960;27.550;2022-08-11T19:14:12;99807.22;;;23.09;36.10
69184;BME280;56291;53.960;27.550;2022-08-11T19:17:03;99809.88;;;22.82;36.79
69184;BME280;56291;53.960;27.550;2022-08-11T19:19:54;99819.75;;;22.68;37.00
69184;BME280;56291;53.960;27.550;2022-08-11T19:22:40;99822.59;;;22.53;37.43
69184;BME280;56291;53.960;27.550;2022-08-11T19:25:26;99824.84;;;22.50;36.95
69184;BME280;56291;53.960;27.550;2022-08-11T19:28:14;99818.22;;;22.39;37.24
69184;BME280;56291;53.960;27.550;2022-08-11T19:31:00;99819.84;;;22.33;36.90
69184;BME280;56291;53.960;27.550;2022-08-11T19:33:46;99830.22;;;22.15;37.49
69184;BME280;56291;53.960;27.550;2022-08-11T19:36:32;99822.38;;;22.06;37.53
69184;BME280;56291;53.960;27.550;2022-08-11T19:39:19;99820.28;;;22.02;37.67
69184;BME280;56291;53.960;27.550;2022-08-11T19:42:08;99826.50;;;22.02;37.86
69184;BME280;56291;53.960;27.550;2022-08-11T19:44:57;99822.22;;;21.80;38.03
69184;BME280;56291;53.960;27.550;2022-08-11T19:50:49;99838.09;;;21.53;38.35
69184;BME280;56291;53.960;27.550;2022-08-11T19:54:01;99835.88;;;21.35;38.53
69184;BME280;56291;53.960;27.550;2022-08-11T20:08:07;99843.69;;;20.86;39.06
69184;BME280;56291;53.960;27.550;2022-08-11T20:10:55;99845.53;;;20.86;39.18
69184;BME280;56291;53.960;27.550;2022-08-11T20:16:48;99849.00;;;20.50;39.72
69184;BME280;56291;53.960;27.550;2022-08-11T20:19:37;99853.84;;;20.40;39.51
69184;BME280;56291;53.960;27.550;2022-08-11T20:22:26;99855.22;;;20.20;40.42
69184;BME280;56291;53.960;27.550;2022-08-11T20:25:13;99854.47;;;20.27;40.05
69184;BME280;56291;53.960;27.550;2022-08-11T20:28:02;99859.38;;;20.23;39.77
69184;BME280;56291;53.960;27.550;2022-08-11T20:30:53;99858.09;;;20.04;40.37
69184;BME280;56291;53.960;27.550;2022-08-11T20:33:41;99856.44;;;19.88;40.65
69184;BME280;56291;53.960;27.550;2022-08-11T20:36:29;99865.00;;;19.83;40.21
69184;BME280;56291;53.960;27.550;2022-08-11T20:39:18;99866.88;;;19.75;40.76
69184;BME280;56291;53.960;27.550;2022-08-11T20:42:05;99868.81;;;19.66;40.50
69184;BME280;56291;53.960;27.550;2022-08-11T20:44:52;99870.72;;;19.57;40.98
69184;BME280;56291;53.960;27.550;2022-08-11T20:47:45;99862.97;;;19.47;40.79
69184;BME280;56291;53.960;27.550;2022-08-11T20:50:31;99867.44;;;19.32;41.62
69184;BME280;56291;53.960;27.550;2022-08-11T20:53:17;99863.66;;;19.26;41.41
69184;BME280;56291;53.960;27.550;2022-08-11T20:56:05;99868.50;;;19.23;41.19
69184;BME280;56291;53.960;27.550;2022-08-11T20:58:51;99870.03;;;19.17;41.22
69184;BME280;56291;53.960;27.550;2022-08-11T21:01:40;99868.75;;;19.13;41.19
69184;BME280;56291;53.960;27.550;2022-08-11T21:04:25;99871.13;;;19.08;41.18
69184;BME280;56291;53.960;27.550;2022-08-11T21:07:11;99871.38;;;18.98;41.81
69184;BME280;56291;53.960;27.550;2022-08-11T21:10:00;99875.25;;;18.87;41.79
69184;BME280;56291;53.960;27.550;2022-08-11T21:12:46;99882.13;;;18.73;42.36
69184;BME280;56291;53.960;27.550;2022-08-11T21:15:35;99889.00;;;18.67;41.65
69184;BME280;56291;53.960;27.550;2022-08-11T21:18:21;99897.69;;;18.61;42.06
69184;BME280;56291;53.960;27.550;2022-08-11T21:21:07;99902.72;;;18.56;41.97
69184;BME280;56291;53.960;27.550;2022-08-11T21:23:59;99895.75;;;18.47;42.05
69184;BME280;56291;53.960;27.550;2022-08-11T21:26:47;99906.59;;;18.37;42.23
69184;BME280;56291;53.960;27.550;2022-08-11T21:29:34;99903.16;;;18.28;42.51
69184;BME280;56291;53.960;27.550;2022-08-11T21:32:21;99910.81;;;18.15;43.78
69184;BME280;56291;53.960;27.550;2022-08-11T21:35:09;99901.38;;;18.12;42.90
69184;BME280;56291;53.960;27.550;2022-08-11T21:37:54;99908.53;;;18.04;43.52
69184;BME280;56291;53.960;27.550;2022-08-11T21:40:41;99907.53;;;17.88;43.75
69184;BME280;56291;53.960;27.550;2022-08-11T21:43:27;99900.25;;;17.98;43.26
69184;BME280;56291;53.960;27.550;2022-08-11T21:46:17;99910.22;;;17.80;44.25
69184;BME280;56291;53.960;27.550;2022-08-11T21:49:03;99905.22;;;17.77;44.19
69184;BME280;56291;53.960;27.550;2022-08-11T21:51:48;99913.72;;;17.72;43.89
69184;BME280;56291;53.960;27.550;2022-08-11T21:54:33;99917.06;;;17.66;44.08
69184;BME280;56291;53.960;27.550;2022-08-11T21:57:18;99912.56;;;17.67;44.07
69184;BME280;56291;53.960;27.550;2022-08-11T22:00:05;99912.72;;;17.57;44.14
69184;BME280;56291;53.960;27.550;2022-08-11T22:02:51;99917.41;;;17.46;44.75
69184;BME280;56291;53.960;27.550;2022-08-11T22:05:39;99917.06;;;17.41;44.69
69184;BME280;56291;53.960;27.550;2022-08-11T22:08:26;99904.91;;;17.30;44.49
69184;BME280;56291;53.960;27.550;2022-08-11T22:11:11;99913.22;;;17.27;44.49
69184;BME280;56291;53.960;27.550;2022-08-11T22:13:59;99917.53;;;17.28;44.91
69184;BME280;56291;53.960;27.550;2022-08-11T22:16:44;99923.00;;;17.19;45.86
69184;BME280;56291;53.960;27.550;2022-08-11T22:19:29;99927.00;;;17.15;44.45
69184;BME280;56291;53.960;27.550;2022-08-11T22:22:15;99918.84;;;17.16;45.01
69184;BME280;56291;53.960;27.550;2022-08-11T22:25:01;99917.81;;;17.01;45.42
69184;BME280;56291;53.960;27.550;2022-08-11T22:27:46;99921.16;;;16.94;45.13
69184;BME280;56291;53.960;27.550;2022-08-11T22:30:31;99922.94;;;16.94;45.64
69184;BME280;56291;53.960;27.550;2022-08-11T22:33:17;99920.25;;;16.86;45.49
69184;BME280;56291;53.960;27.550;2022-08-11T22:36:04;99916.25;;;16.82;45.83
69184;BME280;56291;53.960;27.550;2022-08-11T22:38:50;99916.94;;;16.84;45.19
69184;BME280;56291;53.960;27.550;2022-08-11T22:41:35;99916.53;;;16.70;46.01
69184;BME280;56291;53.960;27.550;2022-08-11T22:44:21;99916.53;;;16.70;45.96
69184;BME280;56291;53.960;27.550;2022-08-11T22:47:07;99922.00;;;16.69;46.12
69184;BME280;56291;53.960;27.550;2022-08-11T22:49:56;99910.72;;;16.67;45.52
69184;BME280;56291;53.960;27.550;2022-08-11T22:52:42;99923.00;;;16.59;46.15
69184;BME280;56291;53.960;27.550;2022-08-11T22:55:28;99909.56;;;16.61;45.86
69184;BME280;56291;53.960;27.550;2022-08-11T22:58:14;99913.00;;;16.53;45.07
69184;BME280;56291;53.960;27.550;2022-08-11T23:01:01;99910.81;;;16.49;45.66
69184;BME280;56291;53.960;27.550;2022-08-11T23:03:49;99914.09;;;16.42;46.14
69184;BME280;56291;53.960;27.550;2022-08-11T23:06:34;99906.09;;;16.26;45.76
69184;BME280;56291;53.960;27.550;2022-08-11T23:09:19;99909.56;;;16.26;45.72
69184;BME280;56291;53.960;27.550;2022-08-11T23:12:07;99909.91;;;16.32;45.55
69184;BME280;56291;53.960;27.550;2022-08-11T23:14:52;99908.38;;;16.21;45.95
69184;BME280;56291;53.960;27.550;2022-08-11T23:17:38;99915.13;;;16.15;46.90
69184;BME280;56291;53.960;27.550;2022-08-11T23:20:23;99909.16;;;16.13;46.28
69184;BME280;56291;53.960;27.550;2022-08-11T23:23:08;99911.81;;;16.13;45.43
69184;BME280;56291;53.960;27.550;2022-08-11T23:25:55;99912.44;;;16.07;45.74
69184;BME280;56291;53.960;27.550;2022-08-11T23:28:42;99911.78;;;16.05;45.25
69184;BME280;56291;53.960;27.550;2022-08-11T23:31:28;99908.59;;;16.01;45.38
69184;BME280;56291;53.960;27.550;2022-08-11T23:34:21;99917.47;;;15.92;45.60
69184;BME280;56291;53.960;27.550;2022-08-11T23:37:07;99916.16;;;15.88;45.91
69184;BME280;56291;53.960;27.550;2022-08-11T23:39:52;99911.66;;;15.88;46.00
69184;BME280;56291;53.960;27.550;2022-08-11T23:42:39;99903.31;;;15.83;45.97
69184;BME280;56291;53.960;27.550;2022-08-11T23:45:25;99910.63;;;15.81;45.58
69184;BME280;56291;53.960;27.550;2022-08-11T23:48:13;99913.28;;;15.81;45.44
69184;BME280;56291;53.960;27.550;2022-08-11T23:51:00;99906.34;;;15.70;46.21
69184;BME280;56291;53.960;27.550;2022-08-11T23:53:46;99911.44;;;15.64;46.14
69184;BME280;56291;53.960;27.550;2022-08-11T23:56:32;99903.41;;;15.55;47.19
69184;BME280;56291;53.960;27.550;2022-08-11T23:59:17;99907.75;;;15.56;46.43
